Time;durP1;ratioP1;P1;durP2;ratioP2;P2;SDS_P1;SDS_P2;PMS_P1;PMS_P2;Temp;Humidity;BMP_temperature;BMP_pressure;BME280_temperature;BME280_humidity;BME280_pressure;Samples;Min_cycle;Max_cycle;Signal;HPM_P1;HPM_P2
2020/12/13 00:02:23;;;;;;;9.77;6.30;;;;;;;8.45;73.60;95648.19;5044540;28;20267;-68
2020/12/13 00:04:49;;;;;;;8.97;6.80;;;;;;;8.53;73.15;95652.56;5045896;28;20194;-70
2020/12/13 00:07:16;;;;;;;8.90;6.87;;;;;;;8.53;72.81;95652.56;5044280;28;20187;-70
2020/12/13 00:09:41;;;;;;;15.20;5.80;;;;;;;8.62;72.69;95654.09;5050160;28;20184;-70
2020/12/13 00:12:07;;;;;;;8.20;5.93;;;;;;;8.62;73.08;95663.75;5073797;28;20498;-70
2020/12/13 00:14:33;;;;;;;8.80;6.20;;;;;;;8.80;72.71;95660.81;5070321;28;20187;-72
2020/12/13 00:16:59;;;;;;;6.70;5.60;;;;;;;8.83;72.42;95655.19;5055379;28;20210;-70
2020/12/13 00:19:25;;;;;;;6.70;5.90;;;;;;;8.82;72.31;95664.06;5074983;28;20936;-69
2020/12/13 00:21:53;;;;;;;10.17;5.70;;;;;;;8.80;72.42;95659.00;5073015;28;20217;-69
2020/12/13 00:24:19;;;;;;;7.53;6.13;;;;;;;8.76;72.27;95657.72;5074467;28;20186;-69
2020/12/13 00:26:44;;;;;;;9.70;5.67;;;;;;;8.85;72.00;95666.28;5072063;28;20425;-70
2020/12/13 00:29:10;;;;;;;7.33;5.40;;;;;;;8.97;71.27;95670.06;5056384;28;20436;-70
2020/12/13 00:31:36;;;;;;;8.43;5.40;;;;;;;8.94;71.72;95670.47;5073613;28;20178;-69
2020/12/13 00:34:02;;;;;;;6.50;4.80;;;;;;;8.83;71.36;95678.72;5073401;28;20817;-69
2020/12/13 00:36:28;;;;;;;6.27;5.20;;;;;;;8.93;71.69;95676.66;5062521;28;20203;-69
2020/12/13 00:38:53;;;;;;;4.90;4.40;;;;;;;8.64;71.86;95680.84;5085561;28;20420;-69
2020/12/13 00:41:19;;;;;;;4.73;4.20;;;;;;;8.68;72.23;95676.91;5073992;28;20212;-69
2020/12/13 00:43:45;;;;;;;5.23;4.73;;;;;;;8.74;71.87;95686.63;5074343;28;20201;-69
2020/12/13 00:46:11;;;;;;;5.03;4.63;;;;;;;8.53;71.96;95678.69;5073103;28;20203;-70
2020/12/13 00:48:36;;;;;;;5.23;4.60;;;;;;;8.42;72.96;95678.09;5073759;28;20440;-69
2020/12/13 00:51:02;;;;;;;6.00;5.40;;;;;;;8.51;72.72;95680.66;5073411;28;20182;-69
2020/12/13 00:53:27;;;;;;;5.70;5.20;;;;;;;8.66;72.01;95684.09;5074140;28;20212;-67
2020/12/13 00:55:53;;;;;;;4.90;4.40;;;;;;;8.43;72.90;95690.16;5072214;28;20190;-70
2020/12/13 00:58:19;;;;;;;6.03;4.97;;;;;;;8.66;72.24;95685.88;5064415;28;20178;-70
2020/12/13 01:00:44;;;;;;;5.13;4.63;;;;;;;8.37;73.60;95692.66;5070718;28;20182;-69
2020/12/13 01:03:10;;;;;;;5.03;4.37;;;;;;;8.26;73.73;95693.88;5074183;28;20206;-69
2020/12/13 01:05:35;;;;;;;5.23;4.70;;;;;;;8.38;73.76;95700.28;5068887;28;20182;-68
2020/12/13 01:08:02;;;;;;;4.90;4.40;;;;;;;8.32;72.97;95708.81;5057903;28;20189;-70
2020/12/13 01:10:28;;;;;;;10.83;4.33;;;;;;;7.88;75.33;95706.84;5068084;28;20195;-70
2020/12/13 01:12:54;;;;;;;4.50;4.10;;;;;;;8.21;74.00;95711.84;5069769;28;20464;-70
2020/12/13 01:15:19;;;;;;;7.43;4.90;;;;;;;8.00;74.25;95713.28;5074506;28;20420;-69
2020/12/13 01:17:46;;;;;;;7.60;5.03;;;;;;;8.17;73.98;95715.78;5074003;28;20460;-68
2020/12/13 01:20:13;;;;;;;7.73;4.80;;;;;;;8.02;75.15;95713.94;5073563;28;20201;-68
2020/12/13 01:22:39;;;;;;;4.57;4.17;;;;;;;8.06;74.04;95717.81;5072668;28;20445;-68
2020/12/13 01:25:06;;;;;;;6.00;5.00;;;;;;;8.10;74.45;95726.91;5050941;28;20989;-70
2020/12/13 01:27:32;;;;;;;6.20;5.03;;;;;;;8.18;73.81;95726.06;5063195;28;20807;-69
2020/12/13 01:29:58;;;;;;;7.53;5.37;;;;;;;8.34;73.60;95716.50;5072647;28;20433;-69
2020/12/13 01:32:24;;;;;;;9.10;5.23;;;;;;;8.06;73.92;95727.44;5067062;28;20213;-69
2020/12/13 01:34:49;;;;;;;7.30;5.47;;;;;;;8.06;74.29;95728.25;5073106;28;20189;-71
2020/12/13 01:37:15;;;;;;;6.20;5.00;;;;;;;8.01;74.26;95730.56;5055595;28;20237;-69
2020/12/13 01:39:41;;;;;;;6.80;5.00;;;;;;;8.38;73.31;95736.84;5072842;28;20187;-68
2020/12/13 01:42:06;;;;;;;6.17;4.40;;;;;;;8.24;73.91;95732.38;5072587;28;20236;-68
2020/12/13 01:44:34;;;;;;;5.17;4.70;;;;;;;8.10;73.61;95739.94;5072864;28;20229;-68
2020/12/13 01:47:01;;;;;;;5.10;4.60;;;;;;;8.25;73.66;95739.22;5072256;28;20181;-69
2020/12/13 01:49:34;;;;;;;5.53;5.03;;;;;;;7.70;75.20;95754.81;5071574;28;20433;-68
2020/12/13 01:54:48;;;;;;;5.40;4.90;;;;;;;7.96;75.27;95751.13;5058012;28;20746;-69
2020/12/13 01:57:15;;;;;;;4.83;4.33;;;;;;;8.14;73.54;95754.28;5071418;28;20492;-68
2020/12/13 01:59:42;;;;;;;6.10;5.27;;;;;;;8.36;72.60;95746.66;5053928;28;20432;-70
2020/12/13 02:02:08;;;;;;;12.73;6.03;;;;;;;7.99;74.47;95756.00;5071713;28;20467;-68
2020/12/13 02:04:36;;;;;;;5.97;4.80;;;;;;;7.78;75.11;95765.25;5070805;28;20920;-68
2020/12/13 02:07:03;;;;;;;6.30;4.90;;;;;;;7.95;75.13;95757.31;5055112;28;20183;-69
2020/12/13 02:09:28;;;;;;;5.83;4.90;;;;;;;8.10;73.56;95758.22;5068253;28;20450;-69
2020/12/13 02:11:54;;;;;;;5.53;4.90;;;;;;;8.35;73.35;95765.09;5072265;28;20444;-70
2020/12/13 02:14:20;;;;;;;5.37;4.70;;;;;;;8.30;73.85;95768.22;5072106;28;20659;-69
2020/12/13 02:16:53;;;;;;;5.47;4.97;;;;;;;8.25;74.10;95767.94;5070167;28;20696;-68
2020/12/13 02:19:19;;;;;;;4.50;4.10;;;;;;;8.22;73.63;95770.88;5071956;28;20436;-69
2020/12/13 02:21:49;;;;;;;6.00;4.90;;;;;;;8.06;74.31;95766.56;5071143;28;20838;-69
2020/12/13 02:24:15;;;;;;;4.63;4.23;;;;;;;8.11;73.96;95774.72;5071714;28;20498;-69
2020/12/13 02:26:42;;;;;;;5.53;4.60;;;;;;;8.35;73.50;95772.94;5070771;28;20793;-69
2020/12/13 02:29:08;;;;;;;5.27;4.63;;;;;;;8.68;71.66;95768.31;5065235;28;20422;-68
2020/12/13 02:31:34;;;;;;;4.87;4.30;;;;;;;8.73;71.88;95773.81;5062030;28;20504;-69
2020/12/13 02:34:02;;;;;;;4.93;4.33;;;;;;;8.62;71.51;95774.22;5069939;28;20811;-68
2020/12/13 02:36:28;;;;;;;4.70;4.27;;;;;;;8.66;71.32;95775.50;5059908;28;20469;-69
2020/12/13 02:38:54;;;;;;;8.93;4.47;;;;;;;8.69;71.76;95782.19;5068652;28;20421;-69
2020/12/13 02:41:20;;;;;;;4.40;4.00;;;;;;;8.50;72.33;95792.13;5071428;28;20421;-69
2020/12/13 02:43:46;;;;;;;4.60;4.10;;;;;;;8.33;73.08;95791.34;5072023;28;20849;-67
2020/12/13 02:46:11;;;;;;;4.13;3.80;;;;;;;8.50;73.30;95799.94;5056079;28;20219;-69
2020/12/13 02:48:37;;;;;;;4.10;3.80;;;;;;;8.58;73.04;95797.28;5071953;28;20190;-70
2020/12/13 02:51:03;;;;;;;4.70;4.23;;;;;;;8.14;74.53;95798.66;5071423;28;20189;-69
2020/12/13 02:53:28;;;;;;;5.30;4.43;;;;;;;8.64;72.24;95795.75;5070258;28;20619;-69
2020/12/13 02:55:54;;;;;;;4.00;3.70;;;;;;;8.55;72.79;95802.03;5070051;28;20186;-68
2020/12/13 02:58:20;;;;;;;4.57;3.67;;;;;;;8.57;72.86;95807.88;5071629;28;20236;-69
2020/12/13 03:00:45;;;;;;;5.43;4.07;;;;;;;8.53;72.34;95817.06;5037073;28;20211;-67
2020/12/13 03:03:11;;;;;;;4.50;4.10;;;;;;;8.75;71.71;95802.38;5068661;28;20293;-69
2020/12/13 03:05:37;;;;;;;4.90;4.40;;;;;;;8.60;72.66;95810.97;5070888;28;20193;-69
2020/12/13 03:08:02;;;;;;;4.60;4.20;;;;;;;8.83;72.04;95812.75;5063795;28;20178;-69
2020/12/13 03:10:28;;;;;;;4.80;4.23;;;;;;;8.74;71.73;95811.22;5073186;28;20183;-68
2020/12/13 03:12:54;;;;;;;5.60;4.50;;;;;;;8.76;71.73;95811.81;5073459;28;20202;-69
2020/12/13 03:15:19;;;;;;;6.67;5.27;;;;;;;8.59;72.37;95808.53;5071910;28;20231;-69
2020/12/13 03:17:45;;;;;;;5.50;4.77;;;;;;;8.53;72.73;95806.63;5073260;28;20206;-67
2020/12/13 03:20:11;;;;;;;6.93;4.40;;;;;;;8.64;71.83;95813.22;5058584;28;20182;-68
2020/12/13 03:22:36;;;;;;;4.63;4.23;;;;;;;8.67;72.26;95820.72;5070760;28;20272;-69
2020/12/13 03:25:03;;;;;;;6.73;5.10;;;;;;;8.76;71.96;95817.03;5071856;28;20189;-68
2020/12/13 03:27:29;;;;;;;7.23;5.07;;;;;;;8.08;74.72;95822.81;5071313;28;20190;-67
2020/12/13 03:29:54;;;;;;;5.07;4.60;;;;;;;8.48;73.28;95821.97;5070882;28;20420;-68
2020/12/13 03:32:20;;;;;;;5.20;4.70;;;;;;;8.67;71.91;95813.72;5070585;28;20206;-69
2020/12/13 03:34:46;;;;;;;5.37;4.40;;;;;;;8.86;71.91;95811.59;5070309;28;20700;-68
2020/12/13 03:37:12;;;;;;;4.77;4.37;;;;;;;8.91;70.95;95812.69;5055363;28;20207;-69
2020/12/13 03:39:37;;;;;;;6.07;4.70;;;;;;;8.76;71.45;95828.31;5073062;28;20608;-67
2020/12/13 03:42:03;;;;;;;4.73;4.30;;;;;;;8.43;73.15;95835.53;5073202;28;20441;-69
2020/12/13 03:44:29;;;;;;;5.20;4.70;;;;;;;8.56;72.19;95835.81;5072768;28;20198;-67
2020/12/13 03:46:55;;;;;;;6.20;4.93;;;;;;;8.60;72.42;95841.50;5071481;28;20175;-67
2020/12/13 03:49:20;;;;;;;5.27;4.77;;;;;;;8.13;74.05;95845.78;5070425;28;20432;-70
2020/12/13 03:51:46;;;;;;;5.43;4.53;;;;;;;8.63;72.07;95843.75;5071261;28;20783;-69
2020/12/13 03:54:12;;;;;;;4.90;4.40;;;;;;;8.50;72.50;95843.50;5056119;28;20539;-68
2020/12/13 03:56:37;;;;;;;5.50;5.00;;;;;;;8.46;72.75;95854.25;5071848;28;20730;-68
2020/12/13 03:59:03;;;;;;;4.90;4.40;;;;;;;8.62;72.08;95857.00;5072428;28;21435;-70
2020/12/13 04:01:28;;;;;;;5.53;4.83;;;;;;;8.54;72.12;95860.47;5070791;28;20186;-68
2020/12/13 04:03:54;;;;;;;4.50;4.10;;;;;;;8.82;71.37;95862.59;5070534;28;20240;-68
2020/12/13 04:06:20;;;;;;;6.40;4.90;;;;;;;8.58;72.00;95866.94;5061512;28;20180;-70
2020/12/13 04:08:46;;;;;;;5.30;4.80;;;;;;;8.86;71.20;95876.91;5062133;28;20175;-69
2020/12/13 04:11:12;;;;;;;4.83;4.43;;;;;;;8.85;71.02;95876.09;5074413;28;20315;-69
2020/12/13 04:13:37;;;;;;;4.67;4.27;;;;;;;8.67;72.14;95873.78;5059330;28;20450;-71
2020/12/13 04:16:03;;;;;;;6.00;4.90;;;;;;;8.92;71.07;95878.84;5072731;28;20309;-69
2020/12/13 04:18:29;;;;;;;5.63;4.30;;;;;;;8.84;70.65;95874.47;5074390;28;20182;-69
2020/12/13 04:20:54;;;;;;;4.90;4.27;;;;;;;8.85;71.17;95885.72;5074247;28;20202;-69
2020/12/13 04:23:20;;;;;;;4.63;4.10;;;;;;;8.48;72.35;95887.25;5074266;28;20202;-70
2020/12/13 04:25:46;;;;;;;8.40;4.90;;;;;;;8.32;72.81;95895.94;5072026;28;20189;-69
2020/12/13 04:28:11;;;;;;;5.13;4.47;;;;;;;8.42;72.59;95897.38;5073420;28;20174;-69
2020/12/13 04:30:37;;;;;;;4.97;4.37;;;;;;;8.47;72.45;95899.47;5074189;28;20186;-70
2020/12/13 04:33:06;;;;;;;5.00;4.40;;;;;;;8.14;74.29;95905.66;5073224;28;20194;-68
2020/12/13 04:35:31;;;;;;;5.30;4.80;;;;;;;7.92;74.87;95907.19;5074615;28;20770;-69
2020/12/13 04:37:57;;;;;;;5.83;4.90;;;;;;;8.37;73.18;95898.88;5057755;28;20536;-69
2020/12/13 04:40:23;;;;;;;5.63;4.13;;;;;;;8.41;72.86;95906.19;5074634;28;20171;-70
2020/12/13 04:42:49;;;;;;;4.50;4.10;;;;;;;8.40;73.44;95901.97;5073524;28;20665;-69
2020/12/13 04:45:15;;;;;;;7.33;4.03;;;;;;;8.03;74.89;95911.25;5056904;28;20553;-69
2020/12/13 04:47:53;;;;;;;4.87;4.10;;;;;;;8.06;74.65;95910.91;5059393;28;20420;-68
2020/12/13 04:50:19;;;;;;;4.97;4.47;;;;;;;7.94;74.52;95914.84;5072315;28;20256;-68
2020/12/13 04:52:45;;;;;;;4.80;4.30;;;;;;;8.25;73.91;95911.47;5071950;28;20437;-68
2020/12/13 04:55:12;;;;;;;4.23;3.83;;;;;;;8.43;73.18;95906.00;5061239;28;20465;-69
2020/12/13 04:57:37;;;;;;;5.83;4.60;;;;;;;8.24;74.24;95917.69;5062184;28;20496;-69
2020/12/13 05:00:04;;;;;;;3.63;3.33;;;;;;;8.20;74.32;95916.38;5073045;28;20517;-68
2020/12/13 05:02:29;;;;;;;4.63;4.20;;;;;;;8.45;73.61;95911.88;5071762;28;20213;-68
2020/12/13 05:04:56;;;;;;;5.20;4.30;;;;;;;8.66;72.82;95908.72;5072434;28;20417;-69
2020/12/13 05:07:22;;;;;;;4.00;3.60;;;;;;;8.45;73.59;95917.91;5072661;28;20214;-68
2020/12/13 05:09:51;;;;;;;4.90;4.40;;;;;;;8.64;72.55;95923.72;5069257;28;20421;-67
2020/12/13 05:12:22;;;;;;;5.40;3.77;;;;;;;8.77;72.10;95920.56;5071583;28;20532;-69
2020/12/13 05:14:48;;;;;;;3.90;3.50;;;;;;;8.95;71.33;95928.13;5072611;28;20465;-68
2020/12/13 05:17:14;;;;;;;4.97;3.70;;;;;;;8.99;70.59;95926.78;5069669;28;21049;-68
2020/12/13 05:19:41;;;;;;;3.60;3.30;;;;;;;8.84;71.02;95933.75;5072614;28;20183;-68
2020/12/13 05:22:08;;;;;;;3.70;3.40;;;;;;;8.46;72.85;95937.00;5071512;28;20210;-69
2020/12/13 05:24:34;;;;;;;5.17;3.73;;;;;;;8.68;72.28;95942.47;5071571;28;20427;-70
2020/12/13 05:27:07;;;;;;;4.47;3.43;;;;;;;8.98;70.99;95938.22;5071399;28;20825;-69
2020/12/13 05:29:35;;;;;;;4.83;3.53;;;;;;;8.24;73.02;95946.38;5075021;28;20417;-68
2020/12/13 05:32:17;;;;;;;3.50;3.20;;;;;;;8.83;71.99;95945.16;5073384;28;20440;-69
2020/12/13 05:34:45;;;;;;;4.00;3.60;;;;;;;9.04;70.55;95945.38;5055893;28;20821;-69
2020/12/13 05:37:15;;;;;;;3.50;3.17;;;;;;;9.01;70.89;95958.00;5056761;28;20463;-69
2020/12/13 05:39:53;;;;;;;3.60;3.30;;;;;;;9.13;70.16;95955.78;5071686;28;20544;-67
2020/12/13 05:42:42;;;;;;;4.37;3.30;;;;;;;9.24;70.28;95963.22;5056356;28;20436;-68
2020/12/13 05:51:10;;;;;;;2.93;2.70;;;;;;;9.32;69.48;95968.41;5058897;28;20461;-69
2020/12/13 05:53:14;;;;;;;4.17;2.77;;;;;;;9.35;69.47;95959.38;5060800;28;20456;-68
2020/12/13 05:55:40;;;;;;;3.07;2.43;;;;;;;9.25;69.72;95971.88;5072643;28;20448;-70
2020/12/13 05:58:06;;;;;;;3.10;2.80;;;;;;;9.25;69.99;95975.31;5060343;28;20452;-69
2020/12/13 06:00:33;;;;;;;3.10;2.80;;;;;;;9.25;69.46;95975.31;5072187;28;20920;-67
2020/12/13 06:02:59;;;;;;;3.50;3.13;;;;;;;9.18;69.83;95980.41;5071477;28;20205;-69
2020/12/13 06:05:28;;;;;;;4.60;3.00;;;;;;;9.13;69.84;95981.91;5072041;28;20515;-70
2020/12/13 06:07:57;;;;;;;3.27;2.93;;;;;;;8.74;71.47;95983.59;5070353;28;20417;-70
2020/12/13 06:10:26;;;;;;;3.80;2.90;;;;;;;8.88;70.36;95990.69;5067802;28;20429;-68
2020/12/13 06:13:08;;;;;;;3.37;3.07;;;;;;;9.00;69.81;95992.94;5071989;28;20443;-68
2020/12/13 06:15:35;;;;;;;3.47;2.70;;;;;;;8.96;70.20;95997.69;5074014;28;20420;-70
2020/12/13 06:18:03;;;;;;;6.63;2.83;;;;;;;8.65;71.35;95990.66;5073607;28;20449;-70
2020/12/13 06:20:29;;;;;;;3.87;2.80;;;;;;;8.52;71.26;96003.44;5072124;28;20455;-68
2020/12/13 06:22:55;;;;;;;3.30;3.00;;;;;;;8.65;71.20;96006.34;5071754;28;20452;-69
2020/12/13 06:25:22;;;;;;;3.17;2.90;;;;;;;8.63;70.87;96010.91;5054798;28;20490;-69
2020/12/13 06:27:49;;;;;;;3.33;3.03;;;;;;;8.66;71.29;96004.53;5069039;28;20519;-68
2020/12/13 06:30:16;;;;;;;3.77;2.80;;;;;;;8.73;70.38;96003.69;5071968;28;20831;-70
2020/12/13 06:32:43;;;;;;;4.00;2.67;;;;;;;8.35;71.68;96008.66;5062172;28;20446;-69
2020/12/13 06:35:10;;;;;;;3.13;2.83;;;;;;;8.39;71.78;96007.38;5054911;28;20504;-70
2020/12/13 06:37:36;;;;;;;4.00;3.63;;;;;;;8.25;72.28;96014.06;5072708;28;20927;-69
2020/12/13 06:40:10;;;;;;;2.47;2.27;;;;;;;8.42;71.83;96012.25;5072478;28;20527;-68
2020/12/13 06:42:41;;;;;;;2.60;2.40;;;;;;;8.27;72.22;96011.31;5072697;28;20484;-68
2020/12/13 06:45:09;;;;;;;2.80;2.50;;;;;;;8.35;72.01;96026.94;5072441;28;20437;-69
2020/12/13 06:47:43;;;;;;;4.03;3.00;;;;;;;8.52;71.64;96032.97;5070705;28;20417;-69
2020/12/13 06:50:23;;;;;;;2.33;2.13;;;;;;;8.39;72.01;96032.66;5054829;28;20417;-69
2020/12/13 06:52:50;;;;;;;2.43;2.23;;;;;;;8.04;73.00;96045.09;5071031;28;20442;-68
2020/12/13 06:55:17;;;;;;;3.30;3.00;;;;;;;8.32;71.83;96042.94;5066133;28;20425;-68
2020/12/13 06:57:44;;;;;;;2.37;2.17;;;;;;;8.50;71.42;96042.78;5047378;28;20457;-69
2020/12/13 07:00:10;;;;;;;2.37;2.17;;;;;;;8.14;72.53;96053.56;5071437;28;20424;-69
2020/12/13 07:02:59;;;;;;;2.30;1.93;;;;;;;8.32;71.72;96048.16;5071197;28;20513;-69
2020/12/13 07:05:44;;;;;;;2.83;2.40;;;;;;;8.15;72.25;96063.03;5062281;28;20185;-70
2020/12/13 07:08:12;;;;;;;2.47;2.20;;;;;;;8.02;73.14;96068.78;5066876;28;20511;-69
2020/12/13 07:10:44;;;;;;;3.60;2.10;;;;;;;8.16;72.10;96069.88;5066693;28;20919;-69
2020/12/13 07:13:12;;;;;;;2.60;2.30;;;;;;;8.28;71.53;96072.97;5064031;28;20470;-69
2020/12/13 07:15:47;;;;;;;2.90;2.60;;;;;;;8.50;71.38;96071.50;5053674;28;20432;-67
2020/12/13 07:18:16;;;;;;;3.07;2.40;;;;;;;8.30;72.70;96076.25;5064406;28;20805;-70
2020/12/13 07:20:44;;;;;;;2.40;2.20;;;;;;;8.23;72.83;96083.91;5071485;28;20420;-69
2020/12/13 07:23:10;;;;;;;2.50;2.30;;;;;;;8.33;72.57;96081.13;5070852;28;20452;-69
2020/12/13 07:25:36;;;;;;;2.80;2.30;;;;;;;8.25;72.82;96094.19;5063579;28;20954;-70
2020/12/13 07:28:02;;;;;;;2.33;2.10;;;;;;;8.45;72.25;96094.66;5069846;28;20851;-68
2020/12/13 07:30:28;;;;;;;2.50;2.40;;;;;;;7.92;74.56;96095.00;5071107;28;20189;-69
2020/12/13 07:32:56;;;;;;;5.70;2.47;;;;;;;8.24;73.74;96097.78;5070324;28;20953;-68
2020/12/13 07:35:23;;;;;;;4.33;2.97;;;;;;;7.92;74.66;96102.03;5061357;28;20424;-67
2020/12/13 07:37:49;;;;;;;2.20;2.10;;;;;;;8.14;74.76;96105.75;5070474;28;20463;-70
2020/12/13 07:40:15;;;;;;;2.60;2.40;;;;;;;8.05;74.73;96107.59;5071240;28;20425;-70
2020/12/13 07:43:01;;;;;;;2.80;2.50;;;;;;;7.97;76.15;96112.78;5072892;28;20443;-67
2020/12/13 07:45:27;;;;;;;2.50;2.30;;;;;;;7.93;76.43;96120.13;5063743;28;20190;-68
2020/12/13 07:48:00;;;;;;;3.43;3.13;;;;;;;7.87;76.49;96125.19;5075436;28;20444;-70
2020/12/13 07:50:28;;;;;;;4.40;2.93;;;;;;;8.07;75.33;96129.09;5075334;28;20420;-70
2020/12/13 07:52:53;;;;;;;3.50;3.00;;;;;;;8.31;74.97;96130.09;5075078;28;20493;-69
2020/12/13 07:55:19;;;;;;;7.93;3.53;;;;;;;8.28;74.52;96135.63;5075138;28;20898;-70
2020/12/13 07:57:48;;;;;;;7.30;2.73;;;;;;;8.30;75.05;96142.31;5075037;28;20203;-70
2020/12/13 08:00:14;;;;;;;4.00;3.57;;;;;;;8.23;75.25;96143.13;5075161;28;20548;-69
2020/12/13 08:02:40;;;;;;;4.60;3.67;;;;;;;7.92;75.89;96144.59;5075108;28;20444;-70
2020/12/13 08:05:06;;;;;;;4.43;3.93;;;;;;;8.28;74.93;96140.84;5067843;28;20186;-70
2020/12/13 08:07:31;;;;;;;5.10;3.80;;;;;;;8.26;75.41;96148.03;5074492;28;20185;-71
2020/12/13 08:09:58;;;;;;;4.57;4.13;;;;;;;8.20;75.34;96148.66;5071406;28;20210;-67
2020/12/13 08:12:39;;;;;;;4.50;4.10;;;;;;;8.13;75.35;96154.56;5074611;28;20243;-68
2020/12/13 08:15:05;;;;;;;4.20;3.60;;;;;;;8.09;75.86;96161.06;5074231;28;20424;-69
2020/12/13 08:17:32;;;;;;;6.33;3.90;;;;;;;8.23;75.83;96172.66;5074631;28;20540;-67
2020/12/13 08:20:02;;;;;;;4.43;4.03;;;;;;;8.37;75.21;96160.75;5073493;28;20452;-69
2020/12/13 08:22:29;;;;;;;4.80;4.30;;;;;;;8.30;74.94;96157.16;5064823;28;20491;-69
2020/12/13 08:25:00;;;;;;;5.87;4.60;;;;;;;8.35;75.32;96167.13;5072508;28;20421;-70
2020/12/13 08:27:29;;;;;;;5.37;4.83;;;;;;;8.47;74.52;96160.59;5056031;28;20424;-69
2020/12/13 08:29:57;;;;;;;4.97;4.40;;;;;;;8.54;74.12;96166.00;5074107;28;20425;-69
2020/12/13 08:32:23;;;;;;;7.70;4.70;;;;;;;8.36;73.92;96164.34;5072715;28;20432;-70
2020/12/13 08:34:50;;;;;;;7.20;4.80;;;;;;;8.50;74.15;96172.53;5068644;28;20915;-70
2020/12/13 08:37:23;;;;;;;4.87;4.43;;;;;;;8.30;74.27;96168.41;5074565;28;20809;-70
2020/12/13 08:39:49;;;;;;;6.77;5.00;;;;;;;8.39;74.01;96171.84;5071979;28;20431;-69
2020/12/13 08:42:22;;;;;;;7.43;4.70;;;;;;;8.31;74.08;96177.09;5073574;28;20432;-68
2020/12/13 08:44:48;;;;;;;4.20;3.87;;;;;;;8.52;72.99;96168.75;5073241;28;20255;-69
2020/12/13 08:47:15;;;;;;;7.00;4.63;;;;;;;8.77;72.42;96171.34;5071834;28;20420;-69
2020/12/13 08:49:41;;;;;;;5.60;4.73;;;;;;;8.73;72.07;96170.06;5072364;28;20681;-68
2020/12/13 08:52:21;;;;;;;6.17;4.87;;;;;;;8.65;71.49;96178.72;5073185;28;20440;-68
2020/12/13 08:54:57;;;;;;;4.77;4.30;;;;;;;8.90;71.27;96178.69;5072679;28;20463;-68
2020/12/13 08:57:31;;;;;;;5.30;4.60;;;;;;;8.92;70.87;96181.94;5073718;28;20459;-68
2020/12/13 09:00:09;;;;;;;4.63;4.23;;;;;;;8.69;70.94;96190.47;5074149;28;20497;-69
2020/12/13 09:02:34;;;;;;;4.67;4.27;;;;;;;8.53;71.77;96196.50;5072605;28;20523;-68
2020/12/13 09:05:02;;;;;;;5.43;4.07;;;;;;;8.76;70.88;96201.88;5064610;28;20523;-68
2020/12/13 09:07:33;;;;;;;5.23;4.27;;;;;;;8.75;71.02;96208.09;5073950;28;20552;-69
2020/12/13 09:10:08;;;;;;;5.50;4.80;;;;;;;8.73;71.29;96215.28;5071585;28;20413;-68
2020/12/13 09:12:34;;;;;;;5.90;4.97;;;;;;;8.75;71.14;96220.34;5073007;28;20992;-70
2020/12/13 09:15:20;;;;;;;7.87;4.50;;;;;;;9.26;69.30;96220.06;5071417;28;20432;-69
2020/12/13 09:18:02;;;;;;;9.50;5.10;;;;;;;9.22;69.45;96226.59;5073601;28;20654;-69
2020/12/13 09:20:29;;;;;;;11.63;5.40;;;;;;;9.47;68.90;96226.53;5066257;28;20936;-69
2020/12/13 09:23:10;;;;;;;5.83;4.73;;;;;;;9.45;69.17;96225.91;5069334;28;20452;-69
2020/12/13 09:25:40;;;;;;;7.43;5.13;;;;;;;9.51;68.28;96225.22;5068251;28;20439;-70
2020/12/13 09:28:06;;;;;;;5.37;4.50;;;;;;;9.56;68.09;96229.94;5060664;28;20425;-70
2020/12/13 09:30:33;;;;;;;7.73;5.20;;;;;;;9.66;67.96;96239.22;5071724;28;20534;-69
2020/12/13 09:32:59;;;;;;;5.30;4.07;;;;;;;9.55;66.84;96257.91;5072817;28;20440;-69
2020/12/13 09:35:28;;;;;;;8.93;5.90;;;;;;;9.74;67.11;96253.25;5062552;28;20519;-70
2020/12/13 09:37:54;;;;;;;4.50;4.10;;;;;;;9.86;66.69;96251.88;5072141;28;20452;-70
2020/12/13 09:40:20;;;;;;;5.13;4.00;;;;;;;9.09;68.48;96260.28;5072258;28;20436;-69
2020/12/13 09:42:46;;;;;;;4.77;4.00;;;;;;;9.24;67.91;96263.06;5055446;28;20198;-68
2020/12/13 09:45:12;;;;;;;6.07;3.93;;;;;;;9.27;68.30;96266.16;5072858;28;20198;-68
2020/12/13 09:47:37;;;;;;;6.80;4.17;;;;;;;9.48;68.05;96252.53;5073428;28;20201;-69
2020/12/13 09:50:03;;;;;;;6.70;4.60;;;;;;;9.64;67.31;96256.88;5072642;28;20198;-69
2020/12/13 09:52:30;;;;;;;5.83;4.40;;;;;;;10.02;66.08;96258.81;5072356;28;20209;-68
2020/12/13 09:54:57;;;;;;;4.60;4.03;;;;;;;9.99;65.58;96254.75;5072019;28;20864;-70
2020/12/13 09:57:22;;;;;;;6.17;4.80;;;;;;;9.79;65.65;96250.94;5072340;28;20449;-69
2020/12/13 09:59:48;;;;;;;3.80;3.40;;;;;;;9.89;65.40;96259.41;5071583;28;20939;-69
2020/12/13 10:02:14;;;;;;;3.63;3.33;;;;;;;9.73;64.96;96251.59;5071629;28;20202;-69
2020/12/13 10:04:40;;;;;;;3.80;3.07;;;;;;;9.53;66.37;96254.63;5062929;28;20645;-69
2020/12/13 10:09:49;;;;;;;4.87;3.00;;;;;;;9.61;64.69;96253.78;5068933;28;20506;-69
2020/12/13 10:12:15;;;;;;;3.70;3.00;;;;;;;9.30;64.69;96265.00;5061157;28;20912;-69
2020/12/13 10:14:41;;;;;;;4.43;2.10;;;;;;;9.27;63.10;96263.53;5066893;28;20184;-69
2020/12/13 10:17:07;;;;;;;4.87;2.10;;;;;;;9.11;62.61;96272.22;5071592;28;20198;-68
2020/12/13 10:19:33;;;;;;;2.70;1.93;;;;;;;9.15;62.55;96275.31;5072133;28;20186;-68
2020/12/13 10:21:59;;;;;;;2.30;2.10;;;;;;;9.41;62.51;96277.72;5071651;28;20449;-67
2020/12/13 10:24:24;;;;;;;1.90;1.80;;;;;;;9.48;62.30;96272.63;5066098;28;20212;-70
2020/12/13 10:26:50;;;;;;;2.50;2.10;;;;;;;9.46;62.12;96279.81;5070536;28;20607;-68
2020/12/13 10:29:16;;;;;;;2.07;1.90;;;;;;;9.29;62.68;96272.03;5059503;28;20183;-68
2020/12/13 10:31:42;;;;;;;5.83;2.37;;;;;;;9.20;63.18;96271.22;5069371;28;20714;-70
2020/12/13 10:34:09;;;;;;;2.97;2.10;;;;;;;9.25;62.82;96265.50;5061279;28;20186;-69
2020/12/13 10:36:37;;;;;;;3.87;2.30;;;;;;;9.17;63.14;96265.53;5071454;28;20232;-69
2020/12/13 10:39:04;;;;;;;2.37;2.00;;;;;;;9.44;63.00;96268.72;5056158;28;20885;-70
2020/12/13 10:41:31;;;;;;;3.20;2.10;;;;;;;9.30;63.48;96270.22;5070015;28;20988;-68
2020/12/13 10:43:57;;;;;;;3.63;2.10;;;;;;;9.18;63.50;96267.97;5061571;28;20441;-69
2020/12/13 10:46:23;;;;;;;2.10;1.90;;;;;;;9.42;63.36;96268.88;5063922;28;20848;-70
2020/12/13 10:48:48;;;;;;;2.53;2.30;;;;;;;9.47;63.00;96265.75;5070767;28;20413;-71
2020/12/13 10:51:15;;;;;;;3.67;2.27;;;;;;;9.30;63.51;96262.38;5070313;28;20200;-71
2020/12/13 10:53:42;;;;;;;4.27;2.10;;;;;;;9.38;64.05;96265.78;5071666;28;20198;-71
2020/12/13 10:56:08;;;;;;;4.73;2.20;;;;;;;9.55;63.00;96267.53;5055101;28;20497;-71
2020/12/13 10:58:33;;;;;;;3.70;2.20;;;;;;;9.87;62.04;96263.97;5043852;28;20519;-71
2020/12/13 11:01:02;;;;;;;3.80;2.37;;;;;;;9.74;62.59;96268.94;5068244;28;20189;-71
2020/12/13 11:03:28;;;;;;;2.33;2.13;;;;;;;9.37;63.87;96277.22;5064190;28;20203;-70
2020/12/13 11:05:54;;;;;;;2.50;2.30;;;;;;;9.68;62.36;96284.34;5067757;28;20871;-69
2020/12/13 11:08:22;;;;;;;3.63;2.10;;;;;;;9.84;61.38;96262.53;5070708;28;20597;-71
2020/12/13 11:10:48;;;;;;;3.67;2.27;;;;;;;9.90;61.08;96266.25;5046964;28;20436;-70
2020/12/13 11:13:14;;;;;;;3.70;2.80;;;;;;;9.63;61.62;96265.72;5069735;28;20448;-71
2020/12/13 11:15:42;;;;;;;3.83;2.60;;;;;;;9.64;62.31;96267.34;5070945;28;20432;-70
2020/12/13 11:18:07;;;;;;;3.83;2.63;;;;;;;9.61;61.90;96272.09;5073612;28;20462;-70
2020/12/13 11:20:33;;;;;;;5.50;3.30;;;;;;;9.72;61.93;96269.13;5072061;28;20728;-72
2020/12/13 11:22:59;;;;;;;2.47;2.27;;;;;;;9.56;62.08;96280.47;5074254;28;20284;-69
2020/12/13 11:25:24;;;;;;;14.27;6.70;;;;;;;9.60;62.42;96271.28;5075569;28;20200;-71
2020/12/13 11:27:50;;;;;;;4.53;2.70;;;;;;;9.90;61.57;96271.50;5072905;28;20546;-74
2020/12/13 11:30:16;;;;;;;13.03;6.33;;;;;;;9.83;61.11;96270.53;5073636;28;20186;-72
2020/12/13 11:32:44;;;;;;;3.50;2.13;;;;;;;9.35;62.14;96279.19;5073485;28;20206;-71
2020/12/13 11:35:15;;;;;;;2.47;2.20;;;;;;;9.66;61.56;96275.84;5065087;28;20250;-72
2020/12/13 11:37:41;;;;;;;3.03;2.67;;;;;;;9.60;62.01;96280.94;5075061;28;20527;-71
2020/12/13 11:40:07;;;;;;;6.70;3.03;;;;;;;9.74;61.58;96276.78;5075534;28;20427;-71
2020/12/13 11:42:34;;;;;;;3.93;3.20;;;;;;;9.63;61.92;96286.66;5075063;28;20202;-71
2020/12/13 11:44:59;;;;;;;3.77;2.60;;;;;;;9.47;62.30;96278.84;5073429;28;20466;-70
2020/12/13 11:47:26;;;;;;;4.43;2.10;;;;;;;8.89;62.94;96289.41;5075221;28;20431;-71
2020/12/13 11:49:52;;;;;;;5.80;3.47;;;;;;;9.10;63.02;96280.22;5066486;28;20273;-70
2020/12/13 11:52:18;;;;;;;4.13;2.37;;;;;;;9.09;63.01;96289.03;5073350;28;20532;-72
2020/12/13 11:54:44;;;;;;;5.37;2.97;;;;;;;9.21;62.15;96292.94;5056569;28;20412;-71